FHY652 LTBS-EGBB
Flight info
| Callsign | FHY652 |
|---|---|
| Flight time | N/A |
| Altitude | 34000 |
| Route | ERFES UW79 YOYYO UN618 IMR UN128 PEREN DCT DISOR DCT LONTA/N0446F360 UL608 DOLEV DCT YULHU DCT DOBOT DCT ZAG DCT BEDOX DCT NEMAL DCT SIMBA DCT MAMOR DCT INBED DCT BOMBI DCT ADKUV DCT LENDO DCT DENUT L610 HEMEL |
| Aircraft | A320/M-SDE3FGHIRWY/LB1 |
Departure
| Time | 2026-04-17 16:50 |
|---|---|
| Airport | Dalaman International Airport (LTBS) |
Arrival
| Time | N/A |
|---|---|
| Airport | Birmingham Airport (EGBB) |
| Time | Latitude | Longitude | Altitude | Speed | Heading |
|---|---|---|---|---|---|
| 2026-04-17 16:25 | 36.72150 | 28.79016 | 12 ft | 0 kts | 285° |
| 2026-04-17 16:41 | 36.72146 | 28.79036 | 12 ft | 4 kts | 280° |
| 2026-04-17 16:41 | 36.72143 | 28.79069 | 12 ft | 4 kts | 263° |
| 2026-04-17 16:42 | 36.72151 | 28.79098 | 12 ft | 4 kts | 219° |
| 2026-04-17 16:42 | 36.72162 | 28.79106 | 12 ft | 1 kts | 195° |
| 2026-04-17 16:42 | 36.72164 | 28.79106 | 12 ft | 0 kts | 195° |
| 2026-04-17 16:45 | 36.72135 | 28.79097 | 12 ft | 11 kts | 195° |
| 2026-04-17 16:45 | 36.72022 | 28.79058 | 12 ft | 21 kts | 197° |
| 2026-04-17 16:45 | 36.71899 | 28.79059 | 12 ft | 18 kts | 128° |
| 2026-04-17 16:45 | 36.71852 | 28.79199 | 13 ft | 18 kts | 147° |
| 2026-04-17 16:46 | 36.71732 | 28.79180 | 12 ft | 18 kts | 195° |
| 2026-04-17 16:46 | 36.71608 | 28.79137 | 14 ft | 19 kts | 195° |
| 2026-04-17 16:46 | 36.71482 | 28.79094 | 12 ft | 19 kts | 195° |
| 2026-04-17 16:46 | 36.71349 | 28.79049 | 12 ft | 20 kts | 194° |
| 2026-04-17 16:47 | 36.71211 | 28.79004 | 13 ft | 21 kts | 195° |
| 2026-04-17 16:47 | 36.71068 | 28.78953 | 13 ft | 22 kts | 196° |
| 2026-04-17 16:47 | 36.70921 | 28.78902 | 13 ft | 22 kts | 194° |
| 2026-04-17 16:47 | 36.70769 | 28.78853 | 13 ft | 23 kts | 195° |
| 2026-04-17 16:48 | 36.70612 | 28.78801 | 13 ft | 24 kts | 195° |
| 2026-04-17 16:48 | 36.70450 | 28.78745 | 13 ft | 24 kts | 195° |
| 2026-04-17 16:48 | 36.70286 | 28.78687 | 13 ft | 25 kts | 196° |
| 2026-04-17 16:48 | 36.70119 | 28.78634 | 13 ft | 23 kts | 185° |
| 2026-04-17 16:49 | 36.70062 | 28.78776 | 13 ft | 22 kts | 67° |
| 2026-04-17 16:49 | 36.70198 | 28.78871 | 13 ft | 32 kts | 16° |
| 2026-04-17 16:49 | 36.70638 | 28.79022 | 13 ft | 99 kts | 15° |
| 2026-04-17 16:49 | 36.71494 | 28.79315 | 13 ft | 153 kts | 15° |
| 2026-04-17 16:50 | 36.72640 | 28.79688 | 318 ft | 171 kts | 10° |
| 2026-04-17 16:50 | 36.73811 | 28.79793 | 984 ft | 170 kts | 2° |
| 2026-04-17 16:50 | 36.74996 | 28.79796 | 1668 ft | 170 kts | 1° |
| 2026-04-17 16:50 | 36.76208 | 28.79788 | 2021 ft | 182 kts | 2° |
| 2026-04-17 16:51 | 36.77542 | 28.79785 | 2157 ft | 202 kts | 4° |
| 2026-04-17 16:51 | 36.79018 | 28.79786 | 2391 ft | 222 kts | 1° |
| 2026-04-17 16:51 | 36.80594 | 28.79249 | 2617 ft | 252 kts | 334° |
| 2026-04-17 16:51 | 36.82165 | 28.78052 | 2943 ft | 274 kts | 332° |
| 2026-04-17 16:52 | 36.83819 | 28.76770 | 3568 ft | 283 kts | 332° |
| 2026-04-17 16:52 | 36.85516 | 28.75452 | 4315 ft | 288 kts | 332° |
| 2026-04-17 16:52 | 36.87223 | 28.74120 | 5088 ft | 292 kts | 329° |
| 2026-04-17 16:52 | 36.88712 | 28.72411 | 5818 ft | 299 kts | 309° |
| 2026-04-17 16:53 | 36.89735 | 28.70100 | 6542 ft | 304 kts | 288° |
| 2026-04-17 16:53 | 36.90124 | 28.67495 | 7261 ft | 307 kts | 272° |
| 2026-04-17 16:53 | 36.90251 | 28.64828 | 7986 ft | 310 kts | 272° |
| 2026-04-17 16:53 | 36.90379 | 28.62162 | 8693 ft | 313 kts | 272° |
| 2026-04-17 16:54 | 36.90512 | 28.59429 | 9361 ft | 316 kts | 272° |
| 2026-04-17 16:54 | 36.90647 | 28.56680 | 10050 ft | 318 kts | 272° |
| 2026-04-17 16:54 | 36.90784 | 28.53844 | 10321 ft | 338 kts | 272° |
| 2026-04-17 16:54 | 36.91090 | 28.50832 | 10522 ft | 358 kts | 282° |
| 2026-04-17 16:55 | 36.91824 | 28.47826 | 11079 ft | 364 kts | 288° |
| 2026-04-17 16:55 | 36.92619 | 28.44800 | 11761 ft | 367 kts | 287° |
| 2026-04-17 16:55 | 36.93405 | 28.41760 | 12464 ft | 367 kts | 287° |
| 2026-04-17 16:55 | 36.94184 | 28.38719 | 13144 ft | 369 kts | 286° |
| 2026-04-17 16:56 | 36.94968 | 28.35650 | 13764 ft | 371 kts | 286° |
| 2026-04-17 16:56 | 36.95752 | 28.32566 | 14337 ft | 374 kts | 286° |
| 2026-04-17 16:56 | 36.96544 | 28.29448 | 14892 ft | 378 kts | 286° |
| 2026-04-17 16:56 | 36.97440 | 28.26391 | 15417 ft | 382 kts | 294° |
| 2026-04-17 16:57 | 36.98776 | 28.23492 | 15922 ft | 387 kts | 303° |
| 2026-04-17 16:57 | 37.00303 | 28.20690 | 16461 ft | 390 kts | 303° |
| 2026-04-17 16:57 | 37.01834 | 28.17873 | 16958 ft | 393 kts | 303° |
| 2026-04-17 16:57 | 37.03373 | 28.15029 | 17454 ft | 396 kts | 303° |
| 2026-04-17 16:58 | 37.04923 | 28.12156 | 17958 ft | 400 kts | 303° |
| 2026-04-17 16:58 | 37.06469 | 28.09247 | 18468 ft | 403 kts | 300° |
| 2026-04-17 16:58 | 37.07392 | 28.07168 | 18790 ft | 404 kts | 296° |
| 2026-04-17 16:58 | 37.08696 | 28.04092 | 19276 ft | 407 kts | 296° |
| 2026-04-17 16:59 | 37.10034 | 28.00943 | 19746 ft | 409 kts | 297° |
| 2026-04-17 16:59 | 37.11376 | 27.97787 | 20242 ft | 412 kts | 297° |
| 2026-04-17 16:59 | 37.12720 | 27.94627 | 20710 ft | 414 kts | 298° |
| 2026-04-17 16:59 | 37.14083 | 27.91421 | 21197 ft | 416 kts | 298° |
| 2026-04-17 17:00 | 37.15450 | 27.88207 | 21646 ft | 418 kts | 298° |
| 2026-04-17 17:00 | 37.16819 | 27.84984 | 22068 ft | 420 kts | 298° |
| 2026-04-17 17:00 | 37.18194 | 27.81744 | 22471 ft | 423 kts | 298° |
| 2026-04-17 17:00 | 37.19581 | 27.78467 | 22865 ft | 425 kts | 298° |
| 2026-04-17 17:01 | 37.20969 | 27.75180 | 23248 ft | 428 kts | 298° |
| 2026-04-17 17:01 | 37.22363 | 27.71870 | 23631 ft | 430 kts | 298° |
| 2026-04-17 17:01 | 37.23763 | 27.68540 | 23986 ft | 432 kts | 298° |
| 2026-04-17 17:01 | 37.25173 | 27.65193 | 24315 ft | 435 kts | 298° |
| 2026-04-17 17:02 | 37.26653 | 27.61942 | 24640 ft | 436 kts | 306° |
| 2026-04-17 17:02 | 37.28605 | 27.59022 | 24956 ft | 436 kts | 317° |
| 2026-04-17 17:02 | 37.30953 | 27.56591 | 25254 ft | 436 kts | 328° |
| 2026-04-17 17:02 | 37.33576 | 27.54707 | 25553 ft | 436 kts | 338° |
| 2026-04-17 17:03 | 37.36383 | 27.53237 | 25845 ft | 437 kts | 340° |
| 2026-04-17 17:03 | 37.39209 | 27.51769 | 26136 ft | 439 kts | 340° |
| 2026-04-17 17:03 | 37.42035 | 27.50282 | 26416 ft | 442 kts | 340° |
| 2026-04-17 17:03 | 37.44875 | 27.48780 | 26702 ft | 444 kts | 340° |
| 2026-04-17 17:04 | 37.47727 | 27.47267 | 26980 ft | 446 kts | 340° |
| 2026-04-17 17:04 | 37.50600 | 27.45744 | 27251 ft | 448 kts | 339° |
| 2026-04-17 17:04 | 37.53468 | 27.44170 | 27508 ft | 450 kts | 339° |
| 2026-04-17 17:04 | 37.56327 | 27.42540 | 27756 ft | 453 kts | 338° |
| 2026-04-17 17:05 | 37.59190 | 27.40869 | 28001 ft | 455 kts | 338° |
| 2026-04-17 17:05 | 37.62065 | 27.39177 | 28238 ft | 457 kts | 338° |
| 2026-04-17 17:05 | 37.64951 | 27.37496 | 28470 ft | 458 kts | 338° |
| 2026-04-17 17:05 | 37.67842 | 27.35873 | 28696 ft | 459 kts | 339° |
| 2026-04-17 17:06 | 37.70775 | 27.34275 | 28918 ft | 461 kts | 340° |
| 2026-04-17 17:06 | 37.73736 | 27.32683 | 29140 ft | 463 kts | 340° |
| 2026-04-17 17:06 | 37.76700 | 27.31091 | 29348 ft | 464 kts | 340° |
| 2026-04-17 17:06 | 37.79671 | 27.29486 | 29546 ft | 466 kts | 340° |
| 2026-04-17 17:07 | 37.82657 | 27.27859 | 29751 ft | 467 kts | 340° |
| 2026-04-17 17:07 | 37.85641 | 27.26225 | 29932 ft | 468 kts | 340° |
| 2026-04-17 17:07 | 37.88629 | 27.24585 | 30169 ft | 468 kts | 340° |
| 2026-04-17 17:07 | 37.91623 | 27.22937 | 30429 ft | 468 kts | 340° |
| 2026-04-17 17:08 | 37.94611 | 27.21289 | 30677 ft | 468 kts | 340° |
| 2026-04-17 17:08 | 37.97590 | 27.19649 | 30898 ft | 468 kts | 340° |
| 2026-04-17 17:08 | 38.00579 | 27.18000 | 31129 ft | 468 kts | 339° |
| 2026-04-17 17:08 | 38.03563 | 27.16350 | 31371 ft | 468 kts | 339° |
| 2026-04-17 17:09 | 38.06555 | 27.14696 | 31571 ft | 469 kts | 339° |
| 2026-04-17 17:09 | 38.09549 | 27.13041 | 31774 ft | 470 kts | 339° |
| 2026-04-17 17:09 | 38.12514 | 27.11401 | 31988 ft | 470 kts | 339° |
| 2026-04-17 17:09 | 38.15553 | 27.09724 | 32196 ft | 470 kts | 339° |
| 2026-04-17 17:10 | 38.18554 | 27.08067 | 32413 ft | 470 kts | 339° |
| 2026-04-17 17:10 | 38.21519 | 27.06421 | 32617 ft | 471 kts | 339° |
| 2026-04-17 17:10 | 38.24517 | 27.04748 | 32817 ft | 471 kts | 339° |
| 2026-04-17 17:10 | 38.27515 | 27.03076 | 33033 ft | 471 kts | 339° |
| 2026-04-17 17:11 | 38.30480 | 27.01301 | 33242 ft | 472 kts | 333° |
| 2026-04-17 17:11 | 38.33246 | 26.99018 | 33430 ft | 475 kts | 323° |
| 2026-04-17 17:11 | 38.35773 | 26.96287 | 33632 ft | 476 kts | 320° |
| 2026-04-17 17:11 | 38.38266 | 26.93513 | 33715 ft | 474 kts | 320° |